Details From TJSJ - San Juan - Luis Munoz Marin Intl
To TNCM - St Maarten - Princess Juliana Intl
Flight Number -
Tags decoded
Created
Modified
Stats Distance 168 nm / 311 km
Max Altitude 0 ft / 0 m
Waypoints 3
Social Downloads 1
Likes 0
Share

Download

Looking for another format? Having issues loading an existing format? Contact us
Advertisement - Login to hide

Notes

Requested: TJSJ OSSEL TNCM

Route

TJSJ OSSEL TNCM

ID Type Via Altitude (ft/m) Position (lat/lon) Dist (leg/tot) Name
O TJSJ APT - 0 / 0 18.43878 / -66.00202 - / 0 nm San Juan - Luis Munoz Marin Intl
OSSEL FIX - 0 / 0 18.13122 / -64.90719 65 / 65 nm
O TNCM APT - 0 / 0 18.04089 / -63.10897 102 / 167 nm St Maarten - Princess Juliana Intl

Altitude Profile

Advertisement - Login to hide

Weather


0- 5 10 15 20 25 30 35+ Temperature / °C

Clouds and Precipitation
Forecast for 2022-08-08 06:00 UTC. Updated 3 hours ago

Ground ~20,000 ft ~40,000 ft Winds

TJSJ

Details ICAO TJSJ (SJU)
Name Luis Munoz Marin Intl
Region USA (Puerto Rico)
Timezone America/Puerto_Rico (UTC-4.0)
Stats Elevation 8 ft / 2 m (AMSL)
Location 18.438700° -66.002200°
Runways 2
Magnetic Variation 13.435° W

METAR

TJSJ 080556Z 09011KT 10SM FEW021 FEW036 SCT060 28/24 A2998

Decode

TAF

TAF TJSJ 080539Z 0806/0906 08012KT P6SM -RA SCT022 SCT040 SCT080 FM080800 09010KT P6SM VCSH SCT024 SCT050 FM081400 07018G29KT P6SM SCT030 SCT060 FM082200 08012KT P6SM VCSH FEW025 SCT050

Decode

Departure Runways

ID Width Length Bearing (true/mag) Surface Threshold Overrun Markings Lighting
08 200 ft / 61 m 10,410 ft / 3,173 m 66.85° / 80.29° ASPHALT 404 ft / 123 m 394 ft / 120 m PREC-APP CENTERLINE EDGE THRESHOLD MALSR REIL-OMNI
10 151 ft / 46 m 8,006 ft / 2,440 m 90.14° / 103.58° CONCRETE 0 ft / 0 m 203 ft / 62 m PREC-APP CENTERLINE EDGE THRESHOLD MALSR REIL-OMNI
26 200 ft / 61 m 10,410 ft / 3,173 m 246.86° / 260.30° ASPHALT 400 ft / 122 m 397 ft / 121 m PREC-APP CENTERLINE EDGE THRESHOLD REIL-OMNI
28 151 ft / 46 m 8,006 ft / 2,440 m 270.15° / 283.58° CONCRETE 0 ft / 0 m 200 ft / 61 m PREC-APP CENTERLINE EDGE THRESHOLD REIL-OMNI

TNCM

Details ICAO TNCM (SXM)
Name Princess Juliana Intl
Region Caribbean Netherlands, Aruba, Curaçao, Sint Maarten
Timezone Unknown
Stats Elevation 14 ft / 4 m (AMSL)
Location 18.040900° -63.108900°
Runways 1
Magnetic Variation 14.452° W

METAR

Not found

TAF

TAF TNCM 072300Z 0800/0824 07013G27KT 9999 SCT016 SCT035

Decode

Destination Runways

ID Width Length Bearing (true/mag) Surface Threshold Overrun Markings Lighting
10 148 ft / 45 m 7,553 ft / 2,302 m 81.44° / 95.89° ASPHALT 331 ft / 101 m 164 ft / 50 m PREC-APP EDGE THRESHOLD REIL-OMNI
28 148 ft / 45 m 7,553 ft / 2,302 m 261.45° / 275.90° ASPHALT 0 ft / 0 m 200 ft / 61 m APP EDGE THRESHOLD

Popular Alternatives